Crossville Memorial Whitson Field Crossville US
ICAO: KCSV
IATA: CSV
Category: Medium
Scheduled Services: No

Elevation: 1881 ft
TransAlt. 18000 ft.

Airport Communications:
ASOS:120.625
ATLANTA CNTR:133.6
NASHVILLE RDO:122.2
CTAF/UNICOM:122.7

KCSV Zoom In..

If Map Doesn't Load, Click Here

Runways:

(A) RW 08 length 5418 ft width 100 ft
---- / hdg 75

(B) RW 26 length 5418 ft width 100 ft
ILS 109.10 / hdg 255

Location; KCSV
Day. 26 / Time. 10.13 Zulu
* Altimeter: 30.10
* Temperature: 21° c. 69.8°f.
* Wind from: 000° Speed 00 kn.
Dewpoint: 20° c.
Visibility: 10 Statute Miles.
Clouds: Overcast 1000 ft.

KCSV 261013Z AUTO 00000KT 10SM OVC010 21/20 A3010 RMK AO2 LTG DSNT S CIG 007V014 T02110200


Wind - Calm.

 
 
jpsmedia.com for Web Design worldairports.se 2018   terms of use